MGMO2: Mangum 1S (Slt Fk Red R)

Data processed at Tue May 21 2019 23:50


All information presented herein is the property of the government of the United States of America and may be revised or deleted at any time without prior notice.
Dissemination of this information without the expressed written consent of the Public Affairs Office, Tulsa District U.S. Army Corps of Engineers is strictly prohibited.
These data are gathered electronically and, as presented, have not undergone any form of quality control. These data are not guaranteed to be valid or correct.
Go to home page.
Go to station list.
Go to home page.

Downstream station:


Previous Day
Next Day
Current Day
    
SHEF ID:       MGMO2     Salt Fork Red River at Mangum, O
STATION TYPE:  
Regulating: Stage =     9.00, Flow =     3416

               PRECIP     STAGE  RIV-FLOW  BAT-LOAD
                   in        ft       cfs      volt
              Ccp-Rev   Ccp-Rev   Ccp-Rev   Ccp-Rev
(US/Central)
05/21 00:00      ----      4.46       410     12.73
05/21 01:00      ----      5.51       827     12.73
05/21 02:00      ----      5.64       888     12.73
05/21 03:00      ----      5.61       874     12.73
05/21 04:00      ----      5.50       822     12.65
05/21 05:00      ----      5.43       790     12.65
05/21 06:00      ----      5.35       754     12.65
05/21 07:00      ----      5.30       732     12.65
05/21 08:00      ----      5.18       681     12.73
05/21 09:00      ----      5.08       640     13.29
05/21 10:00      ----      4.99       603     13.21
05/21 11:00      ----      4.86       552     12.97
05/21 12:00      ----      4.79       525     12.97
05/21 13:00      ----      4.66       478     13.60
05/21 14:00      ----      4.55       440     13.68
05/21 15:00      ----      4.47       413     13.44
05/21 16:00      ----      4.40       390     13.29
05/21 17:00      ----      4.31       362     13.29
05/21 18:00      ----      4.25       344     13.29
05/21 19:00      ----      4.38       384     13.21
05/21 20:00      ----      5.48       813     13.21
05/21 21:00      ----      6.18      1177     12.97
05/21 22:00      ----      6.41      1315     12.89
05/21 23:00      ----      6.54      1396     12.89